This is the latest recevied weather packets stored in our database for station/object DC9VQ-13. If no packets are shown the sender has not sent any weather packets the latest 10 day(s).
| Time | Temp. | Humidity | Pressure | Rain* | Wind** | Luminosity | Snow |
|---|---|---|---|---|---|---|---|
| 1777571498 | 19.44° C | 27% | 1026.6 hPa | 0 mm | - | - | - |
| 1777570894 | 20° C | 27% | 1026.6 hPa | 0 mm | - | - | - |
| 1777570293 | 20.56° C | 26% | 1026.6 hPa | 0 mm | - | - | - |
| 1777569691 | 21.11° C | 26% | 1026.5 hPa | 0 mm | - | - | - |
| 1777569089 | 21.11° C | 25% | 1026.6 hPa | 0 mm | - | - | - |
| 1777568487 | 21.67° C | 25% | 1026.6 hPa | 0 mm | - | - | - |
| 1777567885 | 21.67° C | 23% | 1026.6 hPa | 0 mm | - | - | - |
| 1777567283 | 21.67° C | 24% | 1026.7 hPa | 0 mm | - | - | - |
| 1777566681 | 21.67° C | 23% | 1026.7 hPa | 0 mm | - | - | - |
| 1777566079 | 21.67° C | 24% | 1026.7 hPa | 0 mm | - | - | - |
| 1777565477 | 21.67° C | 23% | 1026.7 hPa | 0 mm | - | - | - |
| 1777564875 | 21.67° C | 24% | 1026.7 hPa | 0 mm | - | - | - |
| 1777564273 | 21.67° C | 23% | 1026.9 hPa | 0 mm | - | - | - |
| 1777563671 | 21.67° C | 23% | 1026.8 hPa | 0 mm | - | - | - |
| 1777563069 | 21.67° C | 24% | 1026.8 hPa | 0 mm | - | - | - |
| 1777562467 | 21.11° C | 24% | 1026.8 hPa | 0 mm | - | - | - |
| 1777561865 | 20.56° C | 24% | 1026.8 hPa | 0 mm | - | - | - |
| 1777561263 | 20.56° C | 24% | 1026.8 hPa | 0 mm | - | - | - |
| 1777560661 | 20° C | 25% | 1026.8 hPa | 0 mm | - | - | - |
| 1777560059 | 19.44° C | 26% | 1027 hPa | 0 mm | - | - | - |
| 1777559459 | 18.89° C | 26% | 1027.1 hPa | 0 mm | - | - | - |
| 1777558855 | 18.33° C | 27% | 1027.3 hPa | 0 mm | - | - | - |
| 1777558253 | 17.78° C | 28% | 1027.4 hPa | 0 mm | - | - | - |
| 1777557651 | 17.22° C | 28% | 1027.6 hPa | 0 mm | - | - | - |
| 1777557050 | 17.22° C | 29% | 1027.5 hPa | 0 mm | - | - | - |
* Rain latest hour (hover to see other rain measurements)
** Current wind speed in m/s (hover to see current wind gust speed)